createdAt,value
2018-07-16T00:00:43.392Z,16.98
2018-07-16T00:03:12.208Z,17.01
2018-07-16T00:05:41.084Z,16.96
2018-07-16T00:08:10.023Z,17.04
2018-07-16T00:10:38.847Z,17.04
2018-07-16T00:13:07.579Z,16.94
2018-07-16T00:15:36.412Z,16.89
2018-07-16T00:18:05.244Z,16.87
2018-07-16T00:20:34.083Z,16.86
2018-07-16T00:23:02.979Z,16.91
2018-07-16T00:25:31.777Z,16.83
2018-07-16T00:28:00.632Z,16.74
2018-07-16T00:30:29.404Z,16.67
2018-07-16T00:32:58.565Z,16.78
2018-07-16T00:35:27.184Z,16.74
2018-07-16T00:37:56.021Z,16.63
2018-07-16T00:40:25.127Z,16.78
2018-07-16T00:42:54.008Z,16.62
2018-07-16T00:45:22.846Z,16.68
2018-07-16T00:47:51.712Z,16.66
2018-07-16T00:50:20.316Z,16.56
2018-07-16T00:52:49.136Z,16.63
2018-07-16T00:55:17.956Z,16.83
2018-07-16T00:57:46.894Z,16.84
2018-07-16T01:00:15.716Z,16.74
2018-07-16T01:02:44.635Z,16.66
2018-07-16T01:05:13.423Z,16.55
2018-07-16T01:07:42.480Z,16.63
2018-07-16T01:10:11.387Z,16.54
2018-07-16T01:12:40.234Z,16.55
2018-07-16T01:15:09.039Z,16.45
2018-07-16T01:17:37.823Z,16.57
2018-07-16T01:20:06.763Z,16.48
2018-07-16T01:22:35.648Z,16.57
2018-07-16T01:25:04.519Z,16.54
2018-07-16T01:27:33.303Z,16.36
2018-07-16T01:30:02.101Z,16.30
2018-07-16T01:32:30.887Z,16.25
2018-07-16T01:35:00.087Z,16.36
2018-07-16T01:37:28.961Z,16.38
2018-07-16T01:39:57.816Z,16.26
2018-07-16T01:42:26.608Z,16.25
2018-07-16T01:44:55.444Z,16.11
2018-07-16T01:47:24.804Z,15.86
2018-07-16T01:49:53.637Z,16.01
2018-07-16T01:52:22.470Z,15.99
2018-07-16T01:54:51.358Z,15.87
2018-07-16T01:57:20.149Z,15.71
2018-07-16T01:59:49.011Z,15.91
2018-07-16T02:02:17.883Z,15.84
2018-07-16T02:04:46.711Z,15.80
2018-07-16T02:07:20.028Z,15.78
2018-07-16T02:09:48.880Z,15.70
2018-07-16T02:12:17.934Z,15.33
2018-07-16T02:14:46.748Z,15.59
2018-07-16T02:17:15.628Z,15.49
2018-07-16T02:19:44.455Z,15.43
2018-07-16T02:22:13.336Z,15.28
2018-07-16T02:24:42.041Z,15.52
2018-07-16T02:27:10.879Z,15.34
2018-07-16T02:29:39.691Z,15.36
2018-07-16T02:32:08.532Z,15.32
2018-07-16T02:34:37.288Z,15.33
2018-07-16T02:37:06.264Z,15.20
2018-07-16T02:39:35.072Z,15.10
2018-07-16T02:42:03.944Z,14.90
2018-07-16T02:44:32.731Z,14.58
2018-07-16T02:47:01.560Z,14.79
2018-07-16T02:49:30.432Z,14.82
2018-07-16T02:51:59.534Z,14.62
2018-07-16T02:54:28.355Z,14.68
2018-07-16T02:56:57.204Z,14.76
2018-07-16T02:59:26.108Z,14.82
2018-07-16T03:01:54.895Z,14.84
2018-07-16T03:04:23.735Z,14.73
2018-07-16T03:06:52.623Z,14.88
2018-07-16T03:09:21.437Z,14.84
2018-07-16T03:11:50.312Z,14.85
2018-07-16T03:14:19.256Z,14.85
2018-07-16T03:16:48.045Z,14.63
2018-07-16T03:19:16.922Z,14.76
2018-07-16T03:21:45.729Z,14.73
2018-07-16T03:24:14.580Z,14.65
2018-07-16T03:26:43.436Z,14.73
2018-07-16T03:29:12.296Z,14.66
2018-07-16T03:31:41.111Z,14.85
2018-07-16T03:34:09.985Z,14.40
2018-07-16T03:36:38.793Z,14.46
2018-07-16T03:39:09.175Z,14.31
2018-07-16T03:41:38.057Z,14.69
2018-07-16T03:44:06.774Z,14.47
2018-07-16T03:46:35.603Z,14.36
2018-07-16T03:49:04.478Z,14.59
2018-07-16T03:51:33.373Z,14.48
2018-07-16T03:54:02.461Z,14.74
2018-07-16T03:56:31.345Z,14.60
2018-07-16T03:59:00.223Z,14.59
2018-07-16T04:01:29.155Z,14.64
2018-07-16T04:03:58.256Z,14.38
2018-07-16T04:06:27.074Z,14.48
2018-07-16T04:08:55.710Z,14.31
2018-07-16T04:11:24.534Z,14.54
2018-07-16T04:13:53.318Z,14.66
2018-07-16T04:16:22.716Z,14.34
2018-07-16T04:18:51.512Z,14.74
2018-07-16T04:21:20.405Z,14.70
2018-07-16T04:23:49.176Z,14.53
2018-07-16T04:26:18.034Z,14.82
2018-07-16T04:28:52.925Z,14.80
2018-07-16T04:31:21.740Z,14.81
2018-07-16T04:33:50.518Z,14.89
2018-07-16T04:36:19.181Z,15.04
2018-07-16T04:38:48.015Z,15.10
2018-07-16T04:41:16.860Z,15.50
2018-07-16T04:43:45.665Z,15.87
2018-07-16T04:46:14.326Z,16.10
2018-07-16T04:48:43.166Z,15.59
2018-07-16T04:51:12.007Z,15.64
2018-07-16T04:53:40.863Z,15.98
2018-07-16T04:56:09.707Z,15.99
2018-07-16T04:58:38.557Z,16.14
2018-07-16T05:01:08.112Z,16.25
2018-07-16T05:03:37.115Z,16.87
2018-07-16T05:06:06.258Z,17.50
2018-07-16T05:08:35.096Z,17.65
2018-07-16T05:11:03.947Z,18.37
2018-07-16T05:13:32.813Z,18.56
2018-07-16T05:16:01.729Z,19.06
2018-07-16T05:18:30.629Z,18.63
2018-07-16T05:20:59.374Z,19.42
2018-07-16T05:23:28.239Z,19.71
2018-07-16T05:25:57.002Z,19.62
2018-07-16T05:28:25.903Z,20.07
2018-07-16T05:30:54.672Z,20.30
2018-07-16T05:33:23.544Z,19.64
2018-07-16T05:35:52.639Z,19.52
2018-07-16T05:38:21.494Z,20.09
2018-07-16T05:40:50.344Z,20.70
2018-07-16T05:43:19.151Z,20.71
2018-07-16T05:45:50.906Z,19.87
2018-07-16T05:48:19.680Z,20.70
2018-07-16T05:50:48.494Z,20.90
2018-07-16T05:53:17.646Z,21.11
2018-07-16T05:55:46.844Z,20.99
2018-07-16T05:58:15.662Z,20.40
2018-07-16T06:00:44.580Z,20.77
2018-07-16T06:03:13.575Z,21.05
2018-07-16T06:05:42.556Z,21.12
2018-07-16T06:08:11.310Z,20.02
2018-07-16T06:10:40.179Z,21.57
2018-07-16T06:13:08.798Z,21.01
2018-07-16T06:15:37.645Z,21.31
2018-07-16T06:18:06.587Z,21.57
2018-07-16T06:20:35.440Z,21.80
2018-07-16T06:23:04.090Z,22.06
2018-07-16T06:25:32.951Z,22.14
2018-07-16T06:28:01.745Z,22.18
2018-07-16T06:30:30.567Z,21.98
2018-07-16T06:32:59.351Z,21.68
2018-07-16T06:35:28.185Z,21.55
2018-07-16T06:37:57.000Z,21.53
2018-07-16T06:40:25.987Z,22.14
2018-07-16T06:42:54.779Z,21.13
2018-07-16T06:45:29.545Z,22.22
2018-07-16T06:47:58.354Z,22.28
2018-07-16T06:50:27.144Z,22.49
2018-07-16T06:52:59.183Z,22.36
2018-07-16T06:55:27.980Z,22.55
2018-07-16T06:57:56.740Z,23.01
2018-07-16T07:00:25.830Z,22.98
2018-07-16T07:02:54.618Z,23.12
2018-07-16T07:05:23.522Z,22.94
2018-07-16T07:07:52.587Z,22.81
2018-07-16T07:10:21.347Z,22.96
2018-07-16T07:12:50.175Z,24.00
2018-07-16T07:15:19.417Z,23.75
2018-07-16T07:17:48.249Z,22.89
2018-07-16T07:20:16.872Z,23.68
2018-07-16T07:22:45.955Z,24.31
2018-07-16T07:25:14.758Z,24.79
2018-07-16T07:27:43.812Z,24.60
2018-07-16T07:30:12.975Z,24.32
2018-07-16T07:32:41.760Z,23.80
2018-07-16T07:35:10.948Z,24.90
2018-07-16T07:37:39.752Z,24.76
2018-07-16T07:40:08.545Z,24.48
2018-07-16T07:42:37.445Z,24.51
2018-07-16T07:45:06.542Z,24.64
2018-07-16T07:47:35.396Z,24.63
2018-07-16T07:50:04.290Z,24.90
2018-07-16T07:52:33.420Z,25.10
2018-07-16T07:55:02.632Z,24.23
2018-07-16T07:57:30.962Z,25.12
2018-07-16T08:00:00.098Z,25.82
2018-07-16T08:02:28.904Z,25.80
2018-07-16T08:04:57.707Z,25.16
2018-07-16T08:07:27.183Z,25.87
2018-07-16T08:09:55.984Z,25.84
2018-07-16T08:12:24.789Z,26.16
2018-07-16T08:14:53.727Z,25.49
2018-07-16T08:17:22.570Z,24.58
2018-07-16T08:19:51.436Z,24.78
2018-07-16T08:22:20.628Z,24.85
2018-07-16T08:24:49.432Z,24.91
2018-07-16T08:27:18.228Z,26.10
2018-07-16T08:29:47.408Z,26.37
2018-07-16T08:32:16.289Z,25.52
2018-07-16T08:34:45.172Z,26.17
2018-07-16T08:37:14.437Z,26.01
2018-07-16T08:39:43.267Z,24.98
2018-07-16T08:42:12.047Z,25.83
2018-07-16T08:44:41.201Z,25.74
2018-07-16T08:47:10.056Z,25.61
2018-07-16T08:49:38.820Z,26.48
2018-07-16T08:52:08.052Z,26.57
2018-07-16T08:54:36.921Z,26.22
2018-07-16T08:57:05.771Z,25.75
2018-07-16T08:59:34.551Z,26.80
2018-07-16T09:02:03.436Z,26.66
2018-07-16T09:04:32.240Z,26.40
2018-07-16T09:07:01.243Z,26.48
2018-07-16T09:09:30.028Z,27.15
2018-07-16T09:11:58.644Z,26.60
2018-07-16T09:14:27.592Z,26.55
2018-07-16T09:16:56.814Z,26.66
2018-07-16T09:19:25.576Z,26.66
2018-07-16T09:21:54.861Z,27.14
2018-07-16T09:24:23.656Z,26.66
2018-07-16T09:26:52.435Z,27.45
2018-07-16T09:29:21.546Z,26.59
2018-07-16T09:31:50.601Z,25.78
2018-07-16T09:34:19.495Z,26.55
2018-07-16T09:36:48.616Z,26.68
2018-07-16T09:39:17.397Z,26.31
2018-07-16T09:41:46.203Z,27.33
2018-07-16T09:44:15.459Z,26.79
2018-07-16T09:46:44.286Z,26.91
2018-07-16T09:49:13.164Z,27.31
2018-07-16T09:51:42.132Z,26.66
2018-07-16T09:54:10.944Z,26.98
2018-07-16T09:56:39.720Z,26.92
2018-07-16T09:59:08.959Z,26.93
2018-07-16T10:01:42.782Z,27.36
2018-07-16T10:04:12.630Z,27.14
2018-07-16T10:06:41.512Z,26.03
2018-07-16T10:09:10.343Z,27.09
2018-07-16T10:11:39.866Z,26.71
2018-07-16T10:14:08.639Z,26.98
2018-07-16T10:16:37.410Z,26.57
2018-07-16T10:19:06.752Z,26.27
2018-07-16T10:21:35.639Z,26.29
2018-07-16T10:24:04.460Z,26.65
2018-07-16T10:26:33.468Z,26.20
2018-07-16T10:29:02.326Z,26.68
2018-07-16T10:31:31.111Z,25.87
2018-07-16T10:34:00.346Z,26.29
2018-07-16T10:36:28.939Z,26.34
2018-07-16T10:38:57.715Z,26.75
2018-07-16T10:41:26.551Z,26.98
2018-07-16T10:43:55.332Z,26.50
2018-07-16T10:46:24.211Z,26.81
2018-07-16T10:48:53.355Z,27.02
2018-07-16T10:51:22.313Z,26.05
2018-07-16T10:53:51.219Z,26.07
2018-07-16T10:56:20.290Z,26.60
2018-07-16T10:58:49.710Z,26.70
2018-07-16T11:01:18.511Z,27.06
2018-07-16T11:03:47.355Z,27.25
2018-07-16T11:06:21.090Z,26.97
2018-07-16T11:08:51.174Z,26.87
2018-07-16T11:11:19.951Z,27.19
2018-07-16T11:13:49.149Z,27.52
2018-07-16T11:16:18.320Z,27.19
2018-07-16T11:18:47.118Z,26.83
2018-07-16T11:21:15.816Z,27.45
2018-07-16T11:23:44.887Z,27.14
2018-07-16T11:26:13.668Z,27.20
2018-07-16T11:28:42.462Z,26.59
2018-07-16T11:31:11.375Z,25.98
2018-07-16T11:33:40.227Z,27.41
2018-07-16T11:36:09.094Z,27.27
2018-07-16T11:38:38.223Z,26.73
2018-07-16T11:41:07.204Z,26.38
2018-07-16T11:43:36.003Z,26.49
2018-07-16T11:46:05.217Z,26.54
2018-07-16T11:48:33.951Z,26.89
2018-07-16T11:51:02.840Z,27.06
2018-07-16T11:53:32.324Z,26.89
2018-07-16T11:56:01.148Z,27.19
2018-07-16T11:58:30.009Z,27.48
2018-07-16T12:00:59.206Z,27.02
2018-07-16T12:03:28.064Z,26.85
2018-07-16T12:05:56.883Z,27.41
2018-07-16T12:08:25.991Z,27.57
2018-07-16T12:10:54.841Z,27.65
2018-07-16T12:13:23.634Z,28.18
2018-07-16T12:15:52.730Z,28.44
2018-07-16T12:18:21.477Z,27.99
2018-07-16T12:20:50.232Z,26.98
2018-07-16T12:23:19.403Z,26.50
2018-07-16T12:25:48.553Z,26.81
2018-07-16T12:28:17.332Z,27.19
2018-07-16T12:30:46.528Z,26.64
2018-07-16T12:33:15.335Z,27.64
2018-07-16T12:35:44.192Z,27.70
2018-07-16T12:38:13.315Z,27.20
2018-07-16T12:40:42.050Z,27.05
2018-07-16T12:43:10.812Z,27.25
2018-07-16T12:45:46.219Z,27.64
2018-07-16T12:48:15.090Z,27.31
2018-07-16T12:50:43.881Z,27.64
2018-07-16T12:53:12.999Z,26.62
2018-07-16T12:55:42.333Z,26.61
2018-07-16T12:58:11.164Z,26.44
2018-07-16T13:00:40.239Z,27.38
2018-07-16T13:03:08.842Z,27.95
2018-07-16T13:05:37.620Z,28.06
2018-07-16T13:08:06.618Z,28.00
2018-07-16T13:10:35.422Z,27.68
2018-07-16T13:13:04.349Z,27.80
2018-07-16T13:15:33.398Z,28.41
2018-07-16T13:18:02.180Z,27.67
2018-07-16T13:20:30.944Z,26.90
2018-07-16T13:23:00.125Z,27.60
2018-07-16T13:25:29.118Z,28.03
2018-07-16T13:27:57.878Z,28.01
2018-07-16T13:30:26.796Z,28.12
2018-07-16T13:32:55.641Z,27.74
2018-07-16T13:35:24.418Z,27.28
2018-07-16T13:37:53.531Z,27.02
2018-07-16T13:40:22.327Z,27.63
2018-07-16T13:42:51.141Z,27.85
2018-07-16T13:45:26.265Z,28.25
2018-07-16T13:47:54.971Z,28.85
2018-07-16T13:50:23.811Z,28.97
2018-07-16T13:52:52.967Z,28.11
2018-07-16T13:55:21.744Z,27.91
2018-07-16T13:57:50.553Z,27.21
2018-07-16T14:00:19.749Z,26.99
2018-07-16T14:02:48.564Z,27.00
2018-07-16T14:05:17.399Z,26.95
2018-07-16T14:07:46.528Z,26.53
2018-07-16T14:10:15.310Z,26.55
2018-07-16T14:12:44.172Z,27.38
2018-07-16T14:15:13.195Z,27.74
2018-07-16T14:17:41.975Z,28.05
2018-07-16T14:20:10.791Z,28.33
2018-07-16T14:22:39.750Z,28.68
2018-07-16T14:25:08.668Z,28.20
2018-07-16T14:27:37.531Z,28.66
2018-07-16T14:30:06.764Z,28.23
2018-07-16T14:32:35.776Z,28.43
2018-07-16T14:35:05.161Z,28.10
2018-07-16T14:37:34.559Z,28.13
2018-07-16T14:40:03.535Z,27.98
2018-07-16T14:42:32.801Z,28.09
2018-07-16T14:45:01.751Z,28.58
2018-07-16T14:47:30.648Z,28.48
2018-07-16T14:49:59.506Z,28.58
2018-07-16T14:52:28.627Z,28.60
2018-07-16T14:54:57.403Z,28.66
2018-07-16T14:57:26.192Z,28.78
2018-07-16T14:59:55.193Z,28.91
2018-07-16T15:02:24.080Z,28.46
2018-07-16T15:04:52.867Z,28.46
2018-07-16T15:07:21.964Z,28.65
2018-07-16T15:09:50.750Z,28.53
2018-07-16T15:12:19.591Z,28.55
2018-07-16T15:14:48.796Z,28.64
2018-07-16T15:17:17.633Z,28.99
2018-07-16T15:19:46.440Z,28.89
2018-07-16T15:22:15.458Z,28.34
2018-07-16T15:24:44.258Z,28.43
2018-07-16T15:27:13.076Z,28.72
2018-07-16T15:29:42.378Z,28.75
2018-07-16T15:32:11.275Z,28.88
2018-07-16T15:34:40.068Z,28.48
2018-07-16T15:37:09.201Z,28.78
2018-07-16T15:39:38.158Z,29.39
2018-07-16T15:42:07.044Z,29.04
2018-07-16T15:44:36.024Z,28.47
2018-07-16T15:47:04.678Z,28.44
2018-07-16T15:49:33.529Z,28.67
2018-07-16T15:52:02.651Z,28.84
2018-07-16T15:54:31.463Z,28.76
2018-07-16T15:57:00.235Z,28.18
2018-07-16T15:59:29.143Z,27.84
2018-07-16T16:01:58.059Z,27.58
2018-07-16T16:04:26.920Z,27.53
2018-07-16T16:06:55.911Z,27.27
2018-07-16T16:09:24.695Z,27.32
2018-07-16T16:11:53.504Z,27.25
2018-07-16T16:14:22.488Z,27.23
2018-07-16T16:16:51.412Z,27.49
2018-07-16T16:19:20.175Z,27.60
2018-07-16T16:21:49.274Z,27.73
2018-07-16T16:24:18.121Z,27.81
2018-07-16T16:26:46.943Z,28.06
2018-07-16T16:29:16.443Z,28.25
2018-07-16T16:31:45.264Z,28.35
2018-07-16T16:34:13.943Z,27.82
2018-07-16T16:36:43.029Z,27.78
2018-07-16T16:39:11.780Z,27.64
2018-07-16T16:41:40.690Z,27.80
2018-07-16T16:44:09.703Z,27.90
2018-07-16T16:46:38.522Z,27.71
2018-07-16T16:49:07.528Z,27.46
2018-07-16T16:51:36.643Z,27.33
2018-07-16T16:54:05.485Z,27.80
2018-07-16T16:56:34.608Z,27.82
2018-07-16T16:59:03.759Z,28.11
2018-07-16T17:01:32.905Z,28.11
2018-07-16T17:04:01.699Z,27.94
2018-07-16T17:06:30.646Z,28.03
2018-07-16T17:08:59.392Z,27.81
2018-07-16T17:11:28.232Z,27.73
2018-07-16T17:13:57.263Z,27.46
2018-07-16T17:16:25.867Z,27.43
2018-07-16T17:18:54.720Z,27.46
2018-07-16T17:21:23.891Z,27.28
2018-07-16T17:23:52.663Z,27.23
2018-07-16T17:26:21.474Z,27.38
2018-07-16T17:28:50.571Z,27.46
2018-07-16T17:31:19.470Z,27.19
2018-07-16T17:33:48.668Z,27.17
2018-07-16T17:36:17.856Z,27.29
2018-07-16T17:38:46.682Z,27.10
2018-07-16T17:41:15.471Z,27.22
2018-07-16T17:43:44.617Z,27.19
2018-07-16T17:46:13.429Z,27.08
2018-07-16T17:48:42.228Z,27.07
2018-07-16T17:51:11.383Z,27.01
2018-07-16T17:53:40.249Z,27.14
2018-07-16T17:56:09.085Z,27.03
2018-07-16T17:58:38.141Z,26.99
2018-07-16T18:01:07.442Z,26.95
2018-07-16T18:03:36.039Z,26.80
2018-07-16T18:06:05.664Z,26.83
2018-07-16T18:08:34.519Z,26.76
2018-07-16T18:11:03.307Z,26.61
2018-07-16T18:13:31.949Z,26.64
2018-07-16T18:16:00.716Z,26.61
2018-07-16T18:18:29.575Z,26.58
2018-07-16T18:20:58.852Z,26.48
2018-07-16T18:23:27.759Z,26.39
2018-07-16T18:25:56.526Z,26.43
2018-07-16T18:28:25.657Z,26.35
2018-07-16T18:30:54.448Z,26.14
2018-07-16T18:33:23.361Z,25.94
2018-07-16T18:35:52.476Z,25.80
2018-07-16T18:38:21.259Z,25.69
2018-07-16T18:40:50.054Z,25.61
2018-07-16T18:43:19.197Z,25.47
2018-07-16T18:45:54.127Z,25.39
2018-07-16T18:48:23.415Z,25.46
2018-07-16T18:50:52.188Z,25.51
2018-07-16T18:53:21.111Z,25.40
2018-07-16T18:55:50.299Z,25.33
2018-07-16T18:58:19.056Z,25.29
2018-07-16T19:00:47.858Z,25.22
2018-07-16T19:03:16.963Z,25.25
2018-07-16T19:05:45.829Z,25.15
2018-07-16T19:08:14.675Z,25.11
2018-07-16T19:10:43.851Z,25.07
2018-07-16T19:13:13.596Z,25.20
2018-07-16T19:15:42.235Z,25.08
2018-07-16T19:18:11.340Z,24.98
2018-07-16T19:20:40.399Z,24.79
2018-07-16T19:23:09.218Z,24.73
2018-07-16T19:25:38.647Z,24.64
2018-07-16T19:28:07.507Z,24.51
2018-07-16T19:30:36.319Z,24.42
2018-07-16T19:33:05.383Z,24.31
2018-07-16T19:35:34.199Z,24.16
2018-07-16T19:38:02.996Z,24.05
2018-07-16T19:40:32.091Z,24.09
2018-07-16T19:43:00.866Z,23.90
2018-07-16T19:45:29.774Z,23.63
2018-07-16T19:47:58.835Z,23.57
2018-07-16T19:50:27.685Z,23.75
2018-07-16T19:52:56.691Z,23.58
2018-07-16T19:55:26.231Z,23.47
2018-07-16T19:57:55.045Z,23.41
2018-07-16T20:00:23.840Z,23.44
2018-07-16T20:02:53.303Z,23.31
2018-07-16T20:05:22.044Z,23.35
2018-07-16T20:07:50.852Z,23.24
2018-07-16T20:10:20.422Z,23.24
2018-07-16T20:12:49.248Z,23.08
2018-07-16T20:15:19.685Z,23.04
2018-07-16T20:17:48.595Z,23.02
2018-07-16T20:20:17.487Z,22.88
2018-07-16T20:22:46.383Z,22.88
2018-07-16T20:25:15.195Z,22.82
2018-07-16T20:27:44.095Z,22.53
2018-07-16T20:30:12.954Z,22.46
2018-07-16T20:32:41.778Z,22.43
2018-07-16T20:35:10.501Z,22.38
2018-07-16T20:37:39.564Z,22.23
2018-07-16T20:40:08.433Z,22.15
2018-07-16T20:42:37.252Z,22.05
2018-07-16T20:45:06.292Z,22.05
2018-07-16T20:47:35.211Z,21.91
2018-07-16T20:50:04.694Z,21.91
2018-07-16T20:52:33.593Z,21.84
2018-07-16T20:55:02.370Z,21.89
2018-07-16T20:57:31.215Z,21.70
2018-07-16T21:00:00.101Z,21.73
2018-07-16T21:02:28.928Z,21.76
2018-07-16T21:04:57.714Z,21.73
2018-07-16T21:07:26.539Z,21.45
2018-07-16T21:09:55.378Z,21.35
2018-07-16T21:12:24.259Z,21.28
2018-07-16T21:14:53.038Z,21.46
2018-07-16T21:17:21.956Z,21.33
2018-07-16T21:19:50.780Z,21.26
2018-07-16T21:22:19.402Z,21.28
2018-07-16T21:24:48.173Z,21.18
2018-07-16T21:27:17.327Z,21.23
2018-07-16T21:29:46.184Z,21.12
2018-07-16T21:32:15.000Z,21.08
2018-07-16T21:34:43.855Z,21.11
2018-07-16T21:37:12.687Z,21.16
2018-07-16T21:39:41.838Z,21.12
2018-07-16T21:42:10.652Z,21.21
2018-07-16T21:44:39.487Z,21.20
2018-07-16T21:47:08.311Z,21.05
2018-07-16T21:49:38.164Z,21.02
2018-07-16T21:52:07.029Z,20.77
2018-07-16T21:54:35.895Z,20.81
2018-07-16T21:57:04.510Z,20.66
2018-07-16T21:59:33.319Z,20.58
2018-07-16T22:02:02.174Z,20.20
2018-07-16T22:04:31.035Z,20.23
2018-07-16T22:06:59.693Z,20.30
2018-07-16T22:09:28.539Z,20.25
2018-07-16T22:11:57.379Z,20.29
2018-07-16T22:14:26.368Z,20.39
2018-07-16T22:16:55.188Z,20.46
2018-07-16T22:19:24.023Z,20.36
2018-07-16T22:21:52.840Z,20.32
2018-07-16T22:24:21.681Z,19.90
2018-07-16T22:26:50.724Z,20.03
2018-07-16T22:29:19.560Z,20.02
2018-07-16T22:31:48.206Z,19.93
2018-07-16T22:34:16.979Z,19.93
2018-07-16T22:36:45.822Z,19.73
2018-07-16T22:39:14.667Z,19.88
2018-07-16T22:41:43.653Z,19.85
2018-07-16T22:44:12.787Z,19.89
2018-07-16T22:46:41.587Z,19.59
2018-07-16T22:49:10.185Z,19.47
2018-07-16T22:51:39.090Z,19.01
2018-07-16T22:54:07.879Z,19.54
2018-07-16T22:56:36.719Z,19.31
2018-07-16T22:59:05.526Z,18.94
2018-07-16T23:01:34.389Z,19.07
2018-07-16T23:04:03.351Z,19.10
2018-07-16T23:06:32.175Z,19.07
2018-07-16T23:09:00.948Z,19.23
2018-07-16T23:11:29.811Z,19.30
2018-07-16T23:13:58.419Z,18.89
2018-07-16T23:16:27.642Z,18.84
2018-07-16T23:18:56.423Z,18.93
2018-07-16T23:21:25.200Z,18.83
2018-07-16T23:23:54.031Z,18.96
2018-07-16T23:26:22.828Z,18.96
2018-07-16T23:28:51.756Z,18.84
2018-07-16T23:31:20.524Z,18.65
2018-07-16T23:33:49.169Z,18.62
2018-07-16T23:36:17.973Z,18.81
2018-07-16T23:38:46.789Z,18.69
2018-07-16T23:41:15.646Z,18.43
2018-07-16T23:43:44.529Z,18.69
2018-07-16T23:46:13.298Z,18.68
2018-07-16T23:48:42.118Z,18.54
2018-07-16T23:51:11.231Z,18.79
2018-07-16T23:53:40.303Z,18.84
2018-07-16T23:56:09.083Z,18.84
2018-07-16T23:58:37.947Z,18.49
